sensor_id;sensor_type;location;lat;lon;timestamp;P1;durP1;ratioP1;P2;durP2;ratioP2
16029;SDS011;34770;49.272;11.070;2024-01-16T00:00:21;7.00;;;5.37;;
16029;SDS011;34770;49.272;11.070;2024-01-16T00:02:47;11.67;;;7.23;;
16029;SDS011;34770;49.272;11.070;2024-01-16T00:05:13;7.57;;;6.10;;
16029;SDS011;34770;49.272;11.070;2024-01-16T00:07:38;7.07;;;5.67;;
16029;SDS011;34770;49.272;11.070;2024-01-16T00:10:06;7.03;;;5.87;;
16029;SDS011;34770;49.272;11.070;2024-01-16T00:12:32;7.13;;;5.33;;
16029;SDS011;34770;49.272;11.070;2024-01-16T00:14:58;8.23;;;5.20;;
16029;SDS011;34770;49.272;11.070;2024-01-16T00:17:23;6.67;;;5.60;;
16029;SDS011;34770;49.272;11.070;2024-01-16T00:19:49;7.93;;;5.73;;
16029;SDS011;34770;49.272;11.070;2024-01-16T00:22:14;10.77;;;5.80;;
16029;SDS011;34770;49.272;11.070;2024-01-16T00:24:40;6.93;;;5.80;;
16029;SDS011;34770;49.272;11.070;2024-01-16T00:27:05;9.57;;;6.50;;
16029;SDS011;34770;49.272;11.070;2024-01-16T00:29:30;6.50;;;5.40;;
16029;SDS011;34770;49.272;11.070;2024-01-16T00:31:56;9.13;;;5.63;;
16029;SDS011;34770;49.272;11.070;2024-01-16T00:34:21;6.63;;;5.53;;
16029;SDS011;34770;49.272;11.070;2024-01-16T00:36:47;6.27;;;5.67;;
16029;SDS011;34770;49.272;11.070;2024-01-16T00:39:12;6.83;;;5.30;;
16029;SDS011;34770;49.272;11.070;2024-01-16T00:41:38;7.37;;;5.30;;
16029;SDS011;34770;49.272;11.070;2024-01-16T00:44:04;6.17;;;5.57;;
16029;SDS011;34770;49.272;11.070;2024-01-16T00:46:29;9.77;;;4.80;;
16029;SDS011;34770;49.272;11.070;2024-01-16T00:48:55;6.13;;;5.10;;
16029;SDS011;34770;49.272;11.070;2024-01-16T00:51:20;8.30;;;5.53;;
16029;SDS011;34770;49.272;11.070;2024-01-16T00:53:45;7.40;;;5.37;;
16029;SDS011;34770;49.272;11.070;2024-01-16T00:56:11;5.07;;;4.57;;
16029;SDS011;34770;49.272;11.070;2024-01-16T00:58:37;6.37;;;5.47;;
16029;SDS011;34770;49.272;11.070;2024-01-16T01:01:03;7.27;;;5.73;;
16029;SDS011;34770;49.272;11.070;2024-01-16T01:03:28;7.17;;;5.80;;
16029;SDS011;34770;49.272;11.070;2024-01-16T01:05:54;6.93;;;4.97;;
16029;SDS011;34770;49.272;11.070;2024-01-16T01:08:20;6.30;;;5.20;;
16029;SDS011;34770;49.272;11.070;2024-01-16T01:10:45;8.37;;;5.60;;
16029;SDS011;34770;49.272;11.070;2024-01-16T01:13:10;8.63;;;6.37;;
16029;SDS011;34770;49.272;11.070;2024-01-16T01:15:36;10.73;;;6.20;;
16029;SDS011;34770;49.272;11.070;2024-01-16T01:18:01;9.80;;;5.60;;
16029;SDS011;34770;49.272;11.070;2024-01-16T01:20:27;11.93;;;7.43;;
16029;SDS011;34770;49.272;11.070;2024-01-16T01:22:52;6.90;;;5.80;;
16029;SDS011;34770;49.272;11.070;2024-01-16T01:25:18;7.30;;;5.90;;
16029;SDS011;34770;49.272;11.070;2024-01-16T01:27:43;7.50;;;6.00;;
16029;SDS011;34770;49.272;11.070;2024-01-16T01:30:09;7.23;;;6.47;;
16029;SDS011;34770;49.272;11.070;2024-01-16T01:32:35;7.30;;;6.60;;
16029;SDS011;34770;49.272;11.070;2024-01-16T01:35:01;7.73;;;6.07;;
16029;SDS011;34770;49.272;11.070;2024-01-16T01:37:27;6.40;;;5.90;;
16029;SDS011;34770;49.272;11.070;2024-01-16T01:39:52;9.90;;;6.63;;
16029;SDS011;34770;49.272;11.070;2024-01-16T01:42:18;9.57;;;6.50;;
16029;SDS011;34770;49.272;11.070;2024-01-16T01:44:43;9.63;;;6.27;;
16029;SDS011;34770;49.272;11.070;2024-01-16T01:47:08;6.83;;;6.13;;
16029;SDS011;34770;49.272;11.070;2024-01-16T01:49:34;6.30;;;5.67;;
16029;SDS011;34770;49.272;11.070;2024-01-16T01:52:01;9.90;;;6.57;;
16029;SDS011;34770;49.272;11.070;2024-01-16T01:54:28;6.53;;;5.93;;
16029;SDS011;34770;49.272;11.070;2024-01-16T01:56:55;6.87;;;5.63;;
16029;SDS011;34770;49.272;11.070;2024-01-16T01:59:20;8.77;;;6.40;;
16029;SDS011;34770;49.272;11.070;2024-01-16T02:01:47;9.77;;;7.03;;
16029;SDS011;34770;49.272;11.070;2024-01-16T02:04:14;7.50;;;6.23;;
16029;SDS011;34770;49.272;11.070;2024-01-16T02:06:42;7.70;;;6.53;;
16029;SDS011;34770;49.272;11.070;2024-01-16T02:09:09;8.53;;;6.07;;
16029;SDS011;34770;49.272;11.070;2024-01-16T02:11:35;8.37;;;6.00;;
16029;SDS011;34770;49.272;11.070;2024-01-16T02:14:00;10.20;;;7.40;;
16029;SDS011;34770;49.272;11.070;2024-01-16T02:16:25;6.07;;;5.50;;
16029;SDS011;34770;49.272;11.070;2024-01-16T02:18:52;7.47;;;6.77;;
16029;SDS011;34770;49.272;11.070;2024-01-16T02:21:18;7.03;;;6.33;;
16029;SDS011;34770;49.272;11.070;2024-01-16T02:23:46;7.03;;;5.77;;
16029;SDS011;34770;49.272;11.070;2024-01-16T02:26:12;8.10;;;5.90;;
16029;SDS011;34770;49.272;11.070;2024-01-16T02:28:39;10.50;;;6.87;;
16029;SDS011;34770;49.272;11.070;2024-01-16T02:31:04;9.80;;;6.83;;
16029;SDS011;34770;49.272;11.070;2024-01-16T02:33:32;7.23;;;6.53;;
16029;SDS011;34770;49.272;11.070;2024-01-16T02:35:57;12.27;;;6.63;;
16029;SDS011;34770;49.272;11.070;2024-01-16T02:38:23;9.23;;;6.67;;
16029;SDS011;34770;49.272;11.070;2024-01-16T02:40:49;7.73;;;6.87;;
16029;SDS011;34770;49.272;11.070;2024-01-16T02:43:15;6.80;;;6.03;;
16029;SDS011;34770;49.272;11.070;2024-01-16T02:45:40;8.87;;;6.30;;
16029;SDS011;34770;49.272;11.070;2024-01-16T02:48:06;9.00;;;7.23;;
16029;SDS011;34770;49.272;11.070;2024-01-16T02:50:31;7.27;;;6.50;;
16029;SDS011;34770;49.272;11.070;2024-01-16T02:52:57;7.53;;;6.80;;
16029;SDS011;34770;49.272;11.070;2024-01-16T02:55:22;9.63;;;6.47;;
16029;SDS011;34770;49.272;11.070;2024-01-16T02:57:48;8.57;;;6.70;;
16029;SDS011;34770;49.272;11.070;2024-01-16T03:00:13;9.20;;;6.40;;
16029;SDS011;34770;49.272;11.070;2024-01-16T03:02:39;9.40;;;6.60;;
16029;SDS011;34770;49.272;11.070;2024-01-16T03:05:05;8.00;;;6.63;;
16029;SDS011;34770;49.272;11.070;2024-01-16T03:07:30;7.27;;;6.57;;
16029;SDS011;34770;49.272;11.070;2024-01-16T03:09:56;10.30;;;7.37;;
16029;SDS011;34770;49.272;11.070;2024-01-16T03:12:21;10.00;;;6.53;;
16029;SDS011;34770;49.272;11.070;2024-01-16T03:14:47;8.77;;;6.43;;
16029;SDS011;34770;49.272;11.070;2024-01-16T03:17:12;10.50;;;7.10;;
16029;SDS011;34770;49.272;11.070;2024-01-16T03:19:38;9.10;;;7.03;;
16029;SDS011;34770;49.272;11.070;2024-01-16T03:22:03;7.87;;;6.83;;
16029;SDS011;34770;49.272;11.070;2024-01-16T03:24:28;7.50;;;5.90;;
16029;SDS011;34770;49.272;11.070;2024-01-16T03:26:54;8.90;;;6.93;;
16029;SDS011;34770;49.272;11.070;2024-01-16T03:29:19;8.37;;;6.27;;
16029;SDS011;34770;49.272;11.070;2024-01-16T03:31:45;9.77;;;7.37;;
16029;SDS011;34770;49.272;11.070;2024-01-16T03:34:10;10.93;;;6.93;;
16029;SDS011;34770;49.272;11.070;2024-01-16T03:36:36;8.40;;;7.07;;
16029;SDS011;34770;49.272;11.070;2024-01-16T03:39:02;8.03;;;7.10;;
16029;SDS011;34770;49.272;11.070;2024-01-16T03:41:28;11.07;;;7.67;;
16029;SDS011;34770;49.272;11.070;2024-01-16T03:43:53;8.43;;;5.30;;
16029;SDS011;34770;49.272;11.070;2024-01-16T03:46:21;11.87;;;7.60;;
16029;SDS011;34770;49.272;11.070;2024-01-16T03:48:47;10.00;;;7.43;;
16029;SDS011;34770;49.272;11.070;2024-01-16T03:51:12;6.63;;;4.50;;
16029;SDS011;34770;49.272;11.070;2024-01-16T03:53:40;8.73;;;6.63;;
16029;SDS011;34770;49.272;11.070;2024-01-16T03:56:06;8.07;;;6.43;;
16029;SDS011;34770;49.272;11.070;2024-01-16T03:58:32;10.17;;;6.60;;
16029;SDS011;34770;49.272;11.070;2024-01-16T04:00:58;6.00;;;5.40;;
16029;SDS011;34770;49.272;11.070;2024-01-16T04:03:24;10.13;;;6.73;;
16029;SDS011;34770;49.272;11.070;2024-01-16T04:05:49;8.43;;;7.33;;
16029;SDS011;34770;49.272;11.070;2024-01-16T04:08:15;8.50;;;6.83;;
16029;SDS011;34770;49.272;11.070;2024-01-16T04:10:40;7.93;;;6.87;;
16029;SDS011;34770;49.272;11.070;2024-01-16T04:13:07;8.37;;;4.97;;
16029;SDS011;34770;49.272;11.070;2024-01-16T04:15:32;11.30;;;7.17;;
16029;SDS011;34770;49.272;11.070;2024-01-16T04:17:59;10.23;;;7.60;;
16029;SDS011;34770;49.272;11.070;2024-01-16T04:20:24;8.20;;;6.40;;
16029;SDS011;34770;49.272;11.070;2024-01-16T04:22:50;8.67;;;7.03;;
16029;SDS011;34770;49.272;11.070;2024-01-16T04:25:15;12.93;;;7.20;;
16029;SDS011;34770;49.272;11.070;2024-01-16T04:27:41;9.10;;;6.47;;
16029;SDS011;34770;49.272;11.070;2024-01-16T04:30:06;6.53;;;5.63;;
16029;SDS011;34770;49.272;11.070;2024-01-16T04:32:32;7.67;;;5.53;;
16029;SDS011;34770;49.272;11.070;2024-01-16T04:34:58;6.77;;;5.90;;
16029;SDS011;34770;49.272;11.070;2024-01-16T04:37:23;7.57;;;6.10;;
16029;SDS011;34770;49.272;11.070;2024-01-16T04:39:49;8.20;;;6.90;;
16029;SDS011;34770;49.272;11.070;2024-01-16T04:42:14;9.23;;;6.77;;
16029;SDS011;34770;49.272;11.070;2024-01-16T04:44:42;8.37;;;6.50;;
16029;SDS011;34770;49.272;11.070;2024-01-16T04:47:08;9.40;;;7.00;;
16029;SDS011;34770;49.272;11.070;2024-01-16T04:49:33;14.00;;;6.63;;
16029;SDS011;34770;49.272;11.070;2024-01-16T04:51:58;7.83;;;7.03;;
16029;SDS011;34770;49.272;11.070;2024-01-16T04:54:24;9.47;;;7.40;;
16029;SDS011;34770;49.272;11.070;2024-01-16T04:56:49;11.17;;;6.00;;
16029;SDS011;34770;49.272;11.070;2024-01-16T04:59:14;8.00;;;6.03;;
16029;SDS011;34770;49.272;11.070;2024-01-16T05:01:40;14.20;;;7.60;;
16029;SDS011;34770;49.272;11.070;2024-01-16T05:04:05;8.97;;;6.97;;
16029;SDS011;34770;49.272;11.070;2024-01-16T05:06:33;11.47;;;7.63;;
16029;SDS011;34770;49.272;11.070;2024-01-16T05:08:58;10.93;;;7.23;;
16029;SDS011;34770;49.272;11.070;2024-01-16T05:11:23;12.87;;;7.90;;
16029;SDS011;34770;49.272;11.070;2024-01-16T05:13:49;9.20;;;7.57;;
16029;SDS011;34770;49.272;11.070;2024-01-16T05:16:14;8.87;;;7.87;;
16029;SDS011;34770;49.272;11.070;2024-01-16T05:18:43;17.10;;;7.63;;
16029;SDS011;34770;49.272;11.070;2024-01-16T05:21:08;9.03;;;7.17;;
16029;SDS011;34770;49.272;11.070;2024-01-16T05:23:33;8.73;;;7.67;;
16029;SDS011;34770;49.272;11.070;2024-01-16T05:25:59;10.23;;;7.90;;
16029;SDS011;34770;49.272;11.070;2024-01-16T05:28:24;7.20;;;5.97;;
16029;SDS011;34770;49.272;11.070;2024-01-16T05:30:49;13.63;;;7.50;;
16029;SDS011;34770;49.272;11.070;2024-01-16T05:33:15;12.20;;;6.33;;
16029;SDS011;34770;49.272;11.070;2024-01-16T05:35:40;10.90;;;8.30;;
16029;SDS011;34770;49.272;11.070;2024-01-16T05:38:06;8.83;;;7.50;;
16029;SDS011;34770;49.272;11.070;2024-01-16T05:40:31;9.17;;;6.77;;
16029;SDS011;34770;49.272;11.070;2024-01-16T05:42:57;15.17;;;7.97;;
16029;SDS011;34770;49.272;11.070;2024-01-16T05:45:22;11.30;;;8.23;;
16029;SDS011;34770;49.272;11.070;2024-01-16T05:47:47;11.23;;;7.17;;
16029;SDS011;34770;49.272;11.070;2024-01-16T05:50:13;9.07;;;7.93;;
16029;SDS011;34770;49.272;11.070;2024-01-16T05:52:38;11.57;;;8.43;;
16029;SDS011;34770;49.272;11.070;2024-01-16T05:55:05;10.50;;;6.20;;
16029;SDS011;34770;49.272;11.070;2024-01-16T05:57:31;11.80;;;8.20;;
16029;SDS011;34770;49.272;11.070;2024-01-16T05:59:58;9.27;;;7.87;;
16029;SDS011;34770;49.272;11.070;2024-01-16T06:02:24;10.60;;;8.10;;
16029;SDS011;34770;49.272;11.070;2024-01-16T06:04:49;11.27;;;7.90;;
16029;SDS011;34770;49.272;11.070;2024-01-16T06:07:14;9.27;;;8.07;;
16029;SDS011;34770;49.272;11.070;2024-01-16T06:09:40;13.30;;;7.60;;
16029;SDS011;34770;49.272;11.070;2024-01-16T06:12:06;9.60;;;7.30;;
16029;SDS011;34770;49.272;11.070;2024-01-16T06:14:32;12.50;;;8.17;;
16029;SDS011;34770;49.272;11.070;2024-01-16T06:16:58;11.70;;;8.97;;
16029;SDS011;34770;49.272;11.070;2024-01-16T06:19:23;13.27;;;8.93;;
16029;SDS011;34770;49.272;11.070;2024-01-16T06:21:49;8.43;;;7.10;;
16029;SDS011;34770;49.272;11.070;2024-01-16T06:24:14;10.63;;;7.33;;
16029;SDS011;34770;49.272;11.070;2024-01-16T06:26:39;9.27;;;7.57;;
16029;SDS011;34770;49.272;11.070;2024-01-16T06:29:05;10.20;;;6.63;;
16029;SDS011;34770;49.272;11.070;2024-01-16T06:31:30;11.60;;;7.30;;
16029;SDS011;34770;49.272;11.070;2024-01-16T06:33:56;8.40;;;6.80;;
16029;SDS011;34770;49.272;11.070;2024-01-16T06:36:21;9.73;;;7.33;;
16029;SDS011;34770;49.272;11.070;2024-01-16T06:38:46;11.50;;;8.07;;
16029;SDS011;34770;49.272;11.070;2024-01-16T06:41:11;11.03;;;7.90;;
16029;SDS011;34770;49.272;11.070;2024-01-16T06:43:37;10.20;;;8.67;;
16029;SDS011;34770;49.272;11.070;2024-01-16T06:46:02;14.77;;;8.17;;
16029;SDS011;34770;49.272;11.070;2024-01-16T06:48:28;12.03;;;8.57;;
16029;SDS011;34770;49.272;11.070;2024-01-16T06:50:54;10.67;;;7.83;;
16029;SDS011;34770;49.272;11.070;2024-01-16T06:53:19;11.60;;;8.40;;
16029;SDS011;34770;49.272;11.070;2024-01-16T06:55:44;8.50;;;7.60;;
16029;SDS011;34770;49.272;11.070;2024-01-16T06:58:10;10.73;;;7.77;;
16029;SDS011;34770;49.272;11.070;2024-01-16T07:00:35;13.00;;;9.37;;
16029;SDS011;34770;49.272;11.070;2024-01-16T07:03:01;11.30;;;7.80;;
16029;SDS011;34770;49.272;11.070;2024-01-16T07:05:27;11.13;;;7.43;;
16029;SDS011;34770;49.272;11.070;2024-01-16T07:07:54;15.53;;;9.60;;
16029;SDS011;34770;49.272;11.070;2024-01-16T07:10:20;10.77;;;7.73;;
16029;SDS011;34770;49.272;11.070;2024-01-16T07:12:47;8.47;;;7.60;;
16029;SDS011;34770;49.272;11.070;2024-01-16T07:15:14;14.30;;;7.90;;
16029;SDS011;34770;49.272;11.070;2024-01-16T07:17:40;9.07;;;7.73;;
16029;SDS011;34770;49.272;11.070;2024-01-16T07:20:06;10.73;;;7.83;;
16029;SDS011;34770;49.272;11.070;2024-01-16T07:22:32;9.17;;;7.50;;
16029;SDS011;34770;49.272;11.070;2024-01-16T07:24:59;9.60;;;7.67;;
16029;SDS011;34770;49.272;11.070;2024-01-16T07:27:24;9.50;;;7.83;;
16029;SDS011;34770;49.272;11.070;2024-01-16T07:29:50;9.00;;;7.63;;
16029;SDS011;34770;49.272;11.070;2024-01-16T07:32:15;10.83;;;7.50;;
16029;SDS011;34770;49.272;11.070;2024-01-16T07:34:41;9.80;;;7.30;;
16029;SDS011;34770;49.272;11.070;2024-01-16T07:37:06;13.37;;;8.23;;
16029;SDS011;34770;49.272;11.070;2024-01-16T07:39:31;12.13;;;8.60;;
16029;SDS011;34770;49.272;11.070;2024-01-16T07:41:57;15.30;;;10.63;;
16029;SDS011;34770;49.272;11.070;2024-01-16T07:44:22;14.63;;;10.67;;
16029;SDS011;34770;49.272;11.070;2024-01-16T07:46:48;15.13;;;10.37;;
16029;SDS011;34770;49.272;11.070;2024-01-16T07:49:13;12.17;;;9.57;;
16029;SDS011;34770;49.272;11.070;2024-01-16T07:51:39;19.23;;;10.03;;
16029;SDS011;34770;49.272;11.070;2024-01-16T07:54:05;18.57;;;11.10;;
16029;SDS011;34770;49.272;11.070;2024-01-16T07:56:32;15.87;;;10.10;;
16029;SDS011;34770;49.272;11.070;2024-01-16T07:58:58;12.73;;;9.47;;
16029;SDS011;34770;49.272;11.070;2024-01-16T08:01:24;14.30;;;9.60;;
16029;SDS011;34770;49.272;11.070;2024-01-16T08:03:49;11.63;;;8.87;;
16029;SDS011;34770;49.272;11.070;2024-01-16T08:06:15;10.07;;;8.90;;
16029;SDS011;34770;49.272;11.070;2024-01-16T08:08:40;10.73;;;8.53;;
16029;SDS011;34770;49.272;11.070;2024-01-16T08:11:06;13.70;;;8.40;;
16029;SDS011;34770;49.272;11.070;2024-01-16T08:13:32;11.00;;;8.77;;
16029;SDS011;34770;49.272;11.070;2024-01-16T08:15:57;10.13;;;7.50;;
16029;SDS011;34770;49.272;11.070;2024-01-16T08:18:23;9.73;;;7.73;;
16029;SDS011;34770;49.272;11.070;2024-01-16T08:20:48;14.20;;;8.40;;
16029;SDS011;34770;49.272;11.070;2024-01-16T08:23:13;9.33;;;7.77;;
16029;SDS011;34770;49.272;11.070;2024-01-16T08:25:39;11.63;;;8.33;;
16029;SDS011;34770;49.272;11.070;2024-01-16T08:28:04;13.43;;;9.17;;
16029;SDS011;34770;49.272;11.070;2024-01-16T08:30:30;14.13;;;9.87;;
16029;SDS011;34770;49.272;11.070;2024-01-16T08:32:55;9.03;;;7.53;;
16029;SDS011;34770;49.272;11.070;2024-01-16T08:35:20;10.97;;;8.60;;
16029;SDS011;34770;49.272;11.070;2024-01-16T08:37:47;9.77;;;8.23;;
16029;SDS011;34770;49.272;11.070;2024-01-16T08:40:13;16.37;;;10.23;;
16029;SDS011;34770;49.272;11.070;2024-01-16T08:42:38;17.23;;;13.07;;
16029;SDS011;34770;49.272;11.070;2024-01-16T08:45:04;9.83;;;8.83;;
16029;SDS011;34770;49.272;11.070;2024-01-16T08:47:30;12.70;;;9.87;;
16029;SDS011;34770;49.272;11.070;2024-01-16T08:49:56;18.63;;;8.83;;
16029;SDS011;34770;49.272;11.070;2024-01-16T08:52:21;8.57;;;7.47;;
16029;SDS011;34770;49.272;11.070;2024-01-16T08:54:47;11.03;;;7.80;;
16029;SDS011;34770;49.272;11.070;2024-01-16T08:57:13;10.80;;;8.43;;
16029;SDS011;34770;49.272;11.070;2024-01-16T08:59:39;11.73;;;8.17;;
16029;SDS011;34770;49.272;11.070;2024-01-16T09:02:05;11.27;;;8.30;;
16029;SDS011;34770;49.272;11.070;2024-01-16T09:04:31;10.77;;;8.00;;
16029;SDS011;34770;49.272;11.070;2024-01-16T09:06:56;13.67;;;8.00;;
16029;SDS011;34770;49.272;11.070;2024-01-16T09:09:21;9.37;;;8.23;;
16029;SDS011;34770;49.272;11.070;2024-01-16T09:11:47;8.70;;;7.43;;
16029;SDS011;34770;49.272;11.070;2024-01-16T09:14:12;13.37;;;7.40;;
16029;SDS011;34770;49.272;11.070;2024-01-16T09:16:37;8.27;;;6.87;;
16029;SDS011;34770;49.272;11.070;2024-01-16T09:19:03;12.40;;;7.63;;
16029;SDS011;34770;49.272;11.070;2024-01-16T09:21:29;7.87;;;7.17;;
16029;SDS011;34770;49.272;11.070;2024-01-16T09:23:54;9.70;;;6.70;;
16029;SDS011;34770;49.272;11.070;2024-01-16T09:26:20;9.27;;;6.47;;
16029;SDS011;34770;49.272;11.070;2024-01-16T09:28:45;8.47;;;7.17;;
16029;SDS011;34770;49.272;11.070;2024-01-16T09:31:11;9.13;;;7.03;;
16029;SDS011;34770;49.272;11.070;2024-01-16T09:33:36;8.30;;;6.40;;
16029;SDS011;34770;49.272;11.070;2024-01-16T09:36:02;9.73;;;8.00;;
16029;SDS011;34770;49.272;11.070;2024-01-16T09:38:30;9.27;;;6.43;;
16029;SDS011;34770;49.272;11.070;2024-01-16T09:40:56;9.50;;;6.33;;
16029;SDS011;34770;49.272;11.070;2024-01-16T09:43:23;9.40;;;6.90;;
16029;SDS011;34770;49.272;11.070;2024-01-16T09:45:51;8.10;;;6.13;;
16029;SDS011;34770;49.272;11.070;2024-01-16T09:48:19;10.03;;;7.10;;
16029;SDS011;34770;49.272;11.070;2024-01-16T09:50:45;9.40;;;6.57;;
16029;SDS011;34770;49.272;11.070;2024-01-16T09:53:10;7.93;;;6.40;;
16029;SDS011;34770;49.272;11.070;2024-01-16T09:55:36;12.90;;;6.73;;
16029;SDS011;34770;49.272;11.070;2024-01-16T09:58:01;12.00;;;6.87;;
16029;SDS011;34770;49.272;11.070;2024-01-16T10:00:29;11.73;;;6.93;;
16029;SDS011;34770;49.272;11.070;2024-01-16T10:02:55;11.93;;;7.03;;
16029;SDS011;34770;49.272;11.070;2024-01-16T10:05:23;9.23;;;6.97;;
16029;SDS011;34770;49.272;11.070;2024-01-16T10:07:49;9.80;;;6.37;;
16029;SDS011;34770;49.272;11.070;2024-01-16T10:10:16;9.63;;;5.67;;
16029;SDS011;34770;49.272;11.070;2024-01-16T10:12:42;9.63;;;6.40;;
16029;SDS011;34770;49.272;11.070;2024-01-16T10:15:08;8.47;;;6.47;;
16029;SDS011;34770;49.272;11.070;2024-01-16T10:17:38;7.40;;;6.23;;
16029;SDS011;34770;49.272;11.070;2024-01-16T10:20:05;9.70;;;6.10;;
16029;SDS011;34770;49.272;11.070;2024-01-16T10:22:31;9.67;;;6.67;;
16029;SDS011;34770;49.272;11.070;2024-01-16T10:25:12;11.13;;;6.70;;
16029;SDS011;34770;49.272;11.070;2024-01-16T10:27:41;7.80;;;6.27;;
16029;SDS011;34770;49.272;11.070;2024-01-16T10:30:07;7.20;;;5.00;;
16029;SDS011;34770;49.272;11.070;2024-01-16T10:32:36;7.60;;;6.27;;
16029;SDS011;34770;49.272;11.070;2024-01-16T10:35:03;8.00;;;5.83;;
16029;SDS011;34770;49.272;11.070;2024-01-16T10:37:42;7.07;;;5.87;;
16029;SDS011;34770;49.272;11.070;2024-01-16T10:40:19;6.73;;;5.37;;
16029;SDS011;34770;49.272;11.070;2024-01-16T10:42:47;7.03;;;5.93;;
16029;SDS011;34770;49.272;11.070;2024-01-16T10:45:22;9.20;;;6.73;;
16029;SDS011;34770;49.272;11.070;2024-01-16T10:48:00;8.53;;;5.27;;
16029;SDS011;34770;49.272;11.070;2024-01-16T10:50:29;7.67;;;5.87;;
16029;SDS011;34770;49.272;11.070;2024-01-16T10:52:58;9.03;;;5.20;;
16029;SDS011;34770;49.272;11.070;2024-01-16T10:55:25;8.63;;;6.00;;
16029;SDS011;34770;49.272;11.070;2024-01-16T10:57:53;6.17;;;5.47;;
16029;SDS011;34770;49.272;11.070;2024-01-16T11:00:21;9.23;;;5.20;;
16029;SDS011;34770;49.272;11.070;2024-01-16T11:05:33;6.83;;;5.00;;
16029;SDS011;34770;49.272;11.070;2024-01-16T11:08:00;10.90;;;6.87;;
16029;SDS011;34770;49.272;11.070;2024-01-16T11:10:26;33.47;;;16.20;;
16029;SDS011;34770;49.272;11.070;2024-01-16T11:12:52;7.70;;;5.47;;
16029;SDS011;34770;49.272;11.070;2024-01-16T11:15:20;7.80;;;5.47;;
16029;SDS011;34770;49.272;11.070;2024-01-16T11:17:55;6.70;;;5.33;;
16029;SDS011;34770;49.272;11.070;2024-01-16T11:20:50;6.97;;;5.80;;
16029;SDS011;34770;49.272;11.070;2024-01-16T11:23:59;12.93;;;6.20;;
16029;SDS011;34770;49.272;11.070;2024-01-16T11:26:26;9.00;;;4.67;;
16029;SDS011;34770;49.272;11.070;2024-01-16T11:28:57;7.93;;;5.97;;
16029;SDS011;34770;49.272;11.070;2024-01-16T12:00:19;10.63;;;6.00;;
16029;SDS011;34770;49.272;11.070;2024-01-16T13:06:00;6.97;;;4.67;;
16029;SDS011;34770;49.272;11.070;2024-01-16T13:08:34;5.80;;;4.23;;
16029;SDS011;34770;49.272;11.070;2024-01-16T13:11:25;8.90;;;5.50;;
16029;SDS011;34770;49.272;11.070;2024-01-16T13:13:58;5.77;;;4.47;;
16029;SDS011;34770;49.272;11.070;2024-01-16T13:16:30;7.50;;;4.90;;
16029;SDS011;34770;49.272;11.070;2024-01-16T13:19:18;6.83;;;4.80;;
16029;SDS011;34770;49.272;11.070;2024-01-16T13:21:54;5.00;;;4.00;;
16029;SDS011;34770;49.272;11.070;2024-01-16T13:24:34;5.97;;;4.37;;
16029;SDS011;34770;49.272;11.070;2024-01-16T13:27:01;8.03;;;5.40;;
16029;SDS011;34770;49.272;11.070;2024-01-16T13:29:42;9.20;;;4.70;;
16029;SDS011;34770;49.272;11.070;2024-01-16T13:32:09;7.80;;;5.10;;
16029;SDS011;34770;49.272;11.070;2024-01-16T13:34:38;7.80;;;4.53;;
16029;SDS011;34770;49.272;11.070;2024-01-16T13:37:03;7.93;;;4.67;;
16029;SDS011;34770;49.272;11.070;2024-01-16T13:39:33;7.20;;;5.73;;
16029;SDS011;34770;49.272;11.070;2024-01-16T13:42:09;8.53;;;6.97;;
16029;SDS011;34770;49.272;11.070;2024-01-16T13:44:44;7.70;;;5.53;;
16029;SDS011;34770;49.272;11.070;2024-01-16T13:47:15;7.80;;;5.30;;
16029;SDS011;34770;49.272;11.070;2024-01-16T13:49:43;16.67;;;4.97;;
16029;SDS011;34770;49.272;11.070;2024-01-16T13:52:10;6.00;;;4.50;;
16029;SDS011;34770;49.272;11.070;2024-01-16T13:54:44;6.13;;;4.90;;
16029;SDS011;34770;49.272;11.070;2024-01-16T13:57:10;6.17;;;4.60;;
16029;SDS011;34770;49.272;11.070;2024-01-16T13:59:35;7.10;;;5.20;;
16029;SDS011;34770;49.272;11.070;2024-01-16T14:02:02;10.80;;;5.83;;
16029;SDS011;34770;49.272;11.070;2024-01-16T19:38:15;16.77;;;13.37;;
16029;SDS011;34770;49.272;11.070;2024-01-16T19:40:41;19.50;;;14.10;;
16029;SDS011;34770;49.272;11.070;2024-01-16T19:43:07;21.60;;;14.37;;
16029;SDS011;34770;49.272;11.070;2024-01-16T19:45:33;18.10;;;12.30;;
16029;SDS011;34770;49.272;11.070;2024-01-16T19:47:59;21.10;;;13.67;;
16029;SDS011;34770;49.272;11.070;2024-01-16T19:50:27;19.30;;;12.93;;
16029;SDS011;34770;49.272;11.070;2024-01-16T19:52:53;16.03;;;12.37;;
16029;SDS011;34770;49.272;11.070;2024-01-16T19:55:23;18.53;;;12.33;;
16029;SDS011;34770;49.272;11.070;2024-01-16T19:57:52;16.57;;;12.20;;
16029;SDS011;34770;49.272;11.070;2024-01-16T20:00:19;20.43;;;11.97;;
16029;SDS011;34770;49.272;11.070;2024-01-16T20:02:45;14.63;;;11.47;;
16029;SDS011;34770;49.272;11.070;2024-01-16T20:05:11;16.43;;;10.70;;
16029;SDS011;34770;49.272;11.070;2024-01-16T20:07:40;17.20;;;12.20;;
16029;SDS011;34770;49.272;11.070;2024-01-16T20:10:07;17.60;;;11.00;;
16029;SDS011;34770;49.272;11.070;2024-01-16T20:12:37;17.13;;;12.13;;
16029;SDS011;34770;49.272;11.070;2024-01-16T20:15:04;14.13;;;10.97;;
16029;SDS011;34770;49.272;11.070;2024-01-16T20:17:30;13.73;;;10.33;;
16029;SDS011;34770;49.272;11.070;2024-01-16T20:19:56;15.10;;;10.77;;
16029;SDS011;34770;49.272;11.070;2024-01-16T20:22:22;15.37;;;11.23;;
16029;SDS011;34770;49.272;11.070;2024-01-16T20:24:47;15.37;;;11.67;;
16029;SDS011;34770;49.272;11.070;2024-01-16T20:27:13;15.50;;;10.17;;
16029;SDS011;34770;49.272;11.070;2024-01-16T20:29:39;13.00;;;10.70;;
16029;SDS011;34770;49.272;11.070;2024-01-16T20:32:04;13.13;;;9.47;;
16029;SDS011;34770;49.272;11.070;2024-01-16T20:34:30;16.20;;;11.63;;
16029;SDS011;34770;49.272;11.070;2024-01-16T20:36:56;13.57;;;9.60;;
16029;SDS011;34770;49.272;11.070;2024-01-16T20:39:23;16.97;;;10.50;;
16029;SDS011;34770;49.272;11.070;2024-01-16T20:41:49;13.40;;;9.80;;
16029;SDS011;34770;49.272;11.070;2024-01-16T20:44:15;14.23;;;10.60;;
16029;SDS011;34770;49.272;11.070;2024-01-16T20:46:46;16.67;;;11.27;;
16029;SDS011;34770;49.272;11.070;2024-01-16T20:49:12;15.87;;;10.47;;
16029;SDS011;34770;49.272;11.070;2024-01-16T20:51:42;13.10;;;10.50;;
16029;SDS011;34770;49.272;11.070;2024-01-16T20:54:08;17.03;;;11.70;;
16029;SDS011;34770;49.272;11.070;2024-01-16T20:56:37;14.60;;;10.93;;
16029;SDS011;34770;49.272;11.070;2024-01-16T20:59:04;19.60;;;12.20;;
16029;SDS011;34770;49.272;11.070;2024-01-16T21:01:30;14.73;;;11.47;;
16029;SDS011;34770;49.272;11.070;2024-01-16T21:03:55;17.07;;;11.30;;
16029;SDS011;34770;49.272;11.070;2024-01-16T21:06:21;17.57;;;12.37;;
16029;SDS011;34770;49.272;11.070;2024-01-16T21:08:46;16.63;;;13.43;;
16029;SDS011;34770;49.272;11.070;2024-01-16T21:11:12;20.03;;;14.63;;
16029;SDS011;34770;49.272;11.070;2024-01-16T21:13:38;19.10;;;14.40;;
16029;SDS011;34770;49.272;11.070;2024-01-16T21:16:07;17.40;;;13.40;;
16029;SDS011;34770;49.272;11.070;2024-01-16T21:18:36;25.70;;;15.27;;
16029;SDS011;34770;49.272;11.070;2024-01-16T21:21:07;22.40;;;15.00;;
16029;SDS011;34770;49.272;11.070;2024-01-16T21:23:32;23.23;;;13.53;;
16029;SDS011;34770;49.272;11.070;2024-01-16T21:25:58;25.77;;;14.40;;
16029;SDS011;34770;49.272;11.070;2024-01-16T21:28:24;25.50;;;16.83;;
16029;SDS011;34770;49.272;11.070;2024-01-16T21:30:49;26.77;;;17.43;;